Time;durP1;ratioP1;P1;durP2;ratioP2;P2;SDS_P1;SDS_P2;PMS_P1;PMS_P2;Temp;Humidity;BMP_temperature;BMP_pressure;BME280_temperature;BME280_humidity;BME280_pressure;Samples;Min_cycle;Max_cycle;Signal;HPM_P1;HPM_P2
2022/10/16 00:00:38;;;;;;;5.38;2.20;;;14.60;99.90;;;;;;5020206;28;20034;-58
2022/10/16 00:03:05;;;;;;;9.52;2.97;;;14.60;99.90;;;;;;5015646;28;20021;-58
2022/10/16 00:05:31;;;;;;;4.68;2.22;;;14.70;99.90;;;;;;5018810;28;20231;-60
2022/10/16 00:07:57;;;;;;;4.00;2.38;;;14.70;99.90;;;;;;5018734;28;20105;-59
2022/10/16 00:10:23;;;;;;;6.15;2.47;;;14.70;99.90;;;;;;5020878;28;20078;-59
2022/10/16 00:12:49;;;;;;;4.03;2.22;;;14.70;99.90;;;;;;5017931;28;20440;-59
2022/10/16 00:15:15;;;;;;;13.63;2.60;;;14.70;99.90;;;;;;5019265;28;20033;-59
2022/10/16 00:17:40;;;;;;;4.28;2.20;;;14.70;99.90;;;;;;5019235;28;20502;-59
2022/10/16 00:20:06;;;;;;;5.80;2.13;;;14.70;99.90;;;;;;5021370;28;20113;-59
2022/10/16 00:22:33;;;;;;;4.43;2.22;;;14.80;99.90;;;;;;5020035;28;20128;-59
2022/10/16 00:24:58;;;;;;;6.40;1.92;;;14.80;99.90;;;;;;5016352;28;20136;-60
2022/10/16 00:27:24;;;;;;;3.10;2.00;;;14.80;99.90;;;;;;5017241;28;20613;-59
2022/10/16 00:29:53;;;;;;;6.13;2.40;;;14.70;99.90;;;;;;5020952;28;20083;-60
2022/10/16 00:32:19;;;;;;;6.55;2.60;;;14.70;99.90;;;;;;5020220;28;20502;-60
2022/10/16 00:34:45;;;;;;;4.82;2.25;;;14.70;99.90;;;;;;5018723;28;20044;-58
2022/10/16 00:37:11;;;;;;;11.35;2.47;;;14.60;99.90;;;;;;5018314;28;20017;-60
2022/10/16 00:39:37;;;;;;;2.97;2.42;;;14.60;99.90;;;;;;5019618;28;20025;-59
2022/10/16 00:42:03;;;;;;;10.43;2.25;;;14.60;99.90;;;;;;5022928;28;20083;-59
2022/10/16 00:44:47;;;;;;;5.20;2.22;;;14.60;99.90;;;;;;5019918;28;20056;-60
2022/10/16 00:47:19;;;;;;;7.00;2.20;;;14.60;99.90;;;;;;5019786;28;20022;-61
2022/10/16 00:49:46;;;;;;;7.90;2.00;;;14.60;99.90;;;;;;5021217;28;20045;-60
2022/10/16 00:52:13;;;;;;;5.20;2.38;;;14.60;99.90;;;;;;5018799;28;20028;-57
2022/10/16 00:54:38;;;;;;;5.07;1.95;;;14.60;99.90;;;;;;5017925;28;20022;-58
2022/10/16 00:57:06;;;;;;;4.60;1.73;;;14.60;99.90;;;;;;5020245;28;20429;-60
2022/10/16 00:59:37;;;;;;;10.93;2.08;;;14.60;99.90;;;;;;5014091;28;20037;-59
2022/10/16 01:02:05;;;;;;;2.47;1.88;;;14.70;99.90;;;;;;5018233;28;20064;-60
2022/10/16 01:04:40;;;;;;;2.92;1.60;;;14.70;99.90;;;;;;5017685;28;20029;-59
2022/10/16 01:07:12;;;;;;;7.40;2.00;;;14.70;99.90;;;;;;5018905;28;20034;-59
2022/10/16 01:09:52;;;;;;;5.43;1.60;;;14.70;99.90;;;;;;5021287;28;20571;-60
2022/10/16 01:12:33;;;;;;;3.63;1.80;;;14.80;99.90;;;;;;5018612;28;20037;-59
2022/10/16 01:15:05;;;;;;;;;;;14.80;99.90;;;;;;5014573;28;20469;-58
2022/10/16 01:17:41;;;;;;;3.00;1.63;;;14.80;99.90;;;;;;5019761;28;19909;-59
2022/10/16 01:20:11;;;;;;;2.25;1.60;;;14.90;99.90;;;;;;5017685;28;20037;-59
2022/10/16 01:22:49;;;;;;;5.93;1.45;;;14.90;99.90;;;;;;5017258;28;20022;-60
2022/10/16 01:25:36;;;;;;;1.77;1.40;;;14.90;99.90;;;;;;5016005;28;20026;-58
2022/10/16 01:28:04;;;;;;;6.93;1.60;;;14.90;99.90;;;;;;5013954;28;20124;-60
2022/10/16 01:30:33;;;;;;;3.17;1.58;;;14.90;99.90;;;;;;5019540;28;20028;-59
2022/10/16 01:33:04;;;;;;;3.55;1.70;;;14.90;99.90;;;;;;5017015;28;20061;-59
2022/10/16 01:35:35;;;;;;;3.58;1.83;;;14.90;99.90;;;;;;5017799;28;20056;-58
2022/10/16 01:38:21;;;;;;;3.22;1.70;;;14.80;99.90;;;;;;5017478;28;20155;-59
2022/10/16 01:40:57;;;;;;;4.60;1.70;;;14.80;99.90;;;;;;5017367;28;20034;-60
2022/10/16 01:43:36;;;;;;;3.00;2.03;;;14.80;99.90;;;;;;5015073;28;20817;-59
2022/10/16 01:46:03;;;;;;;3.10;1.70;;;14.80;99.90;;;;;;5018933;28;20034;-59
2022/10/16 01:48:32;;;;;;;2.78;2.00;;;14.80;99.90;;;;;;5018177;28;20038;-60
2022/10/16 01:51:06;;;;;;;2.85;1.60;;;14.80;99.90;;;;;;5019400;28;20033;-59
2022/10/16 01:53:33;;;;;;;4.07;1.55;;;14.80;99.90;;;;;;5020586;28;20501;-59
2022/10/16 01:56:00;;;;;;;3.20;1.48;;;14.80;99.90;;;;;;5022025;28;20040;-57
2022/10/16 01:58:30;;;;;;;3.30;1.40;;;14.80;99.90;;;;;;5021775;28;20037;-59
2022/10/16 02:00:56;;;;;;;2.38;1.73;;;14.70;99.90;;;;;;5019282;28;20033;-59
2022/10/16 02:03:22;;;;;;;2.03;1.70;;;14.70;99.90;;;;;;5019754;28;20032;-59
2022/10/16 02:05:53;;;;;;;5.22;1.50;;;14.70;99.90;;;;;;5020516;28;20030;-59
2022/10/16 02:08:20;;;;;;;7.20;2.08;;;14.60;99.90;;;;;;5018700;28;20022;-60
2022/10/16 02:10:46;;;;;;;6.75;2.10;;;14.60;99.90;;;;;;5021694;28;20052;-60
2022/10/16 02:13:19;;;;;;;6.97;2.75;;;14.60;99.90;;;;;;5024958;28;20042;-60
2022/10/16 02:15:45;;;;;;;15.52;2.55;;;14.50;99.90;;;;;;5022917;28;20079;-60
2022/10/16 02:18:11;;;;;;;12.63;2.42;;;14.50;99.90;;;;;;5021203;28;20041;-58
2022/10/16 02:20:44;;;;;;;4.28;2.38;;;14.50;99.90;;;;;;5018421;28;20037;-59
2022/10/16 02:23:16;;;;;;;3.97;2.30;;;14.60;99.90;;;;;;5021066;28;20494;-60
2022/10/16 02:25:45;;;;;;;6.88;3.03;;;14.60;99.90;;;;;;5023029;28;20017;-59
2022/10/16 02:28:21;;;;;;;3.35;2.30;;;14.60;99.90;;;;;;5020043;28;20029;-60
2022/10/16 02:30:58;;;;;;;6.35;2.55;;;14.60;99.90;;;;;;5022358;28;20029;-59
2022/10/16 02:33:26;;;;;;;4.45;2.67;;;14.60;99.90;;;;;;5020286;28;20535;-60
2022/10/16 02:35:53;;;;;;;2.45;2.20;;;14.60;99.90;;;;;;5021904;28;20030;-60
2022/10/16 02:38:21;;;;;;;12.25;2.47;;;14.70;99.90;;;;;;5018517;28;20026;-59
2022/10/16 02:40:46;;;;;;;14.32;2.15;;;14.70;99.90;;;;;;5023950;28;20032;-58
2022/10/16 02:43:13;;;;;;;4.70;2.55;;;14.70;99.90;;;;;;5020714;28;20014;-59
2022/10/16 02:45:38;;;;;;;3.97;1.95;;;14.70;99.90;;;;;;5022889;28;20025;-59
2022/10/16 02:48:05;;;;;;;8.30;2.70;;;14.70;99.90;;;;;;5019691;28;20359;-60
2022/10/16 02:50:30;;;;;;;7.72;2.00;;;14.70;99.90;;;;;;5019991;28;20037;-59
2022/10/16 02:52:56;;;;;;;3.92;2.20;;;14.70;99.90;;;;;;5027987;28;20433;-58
2022/10/16 02:55:21;;;;;;;3.67;2.25;;;14.70;99.90;;;;;;5022319;28;20032;-59
2022/10/16 02:57:47;;;;;;;4.30;2.40;;;14.80;99.90;;;;;;5019242;28;20111;-60
2022/10/16 03:00:15;;;;;;;6.68;4.25;;;14.80;99.90;;;;;;5018689;28;20109;-58
2022/10/16 03:02:41;;;;;;;3.97;3.58;;;14.80;99.90;;;;;;5017423;28;20117;-58
2022/10/16 03:05:07;;;;;;;8.18;4.05;;;14.80;99.90;;;;;;5018941;28;20117;-60
2022/10/16 03:07:33;;;;;;;12.00;4.50;;;14.80;99.90;;;;;;5015957;28;20478;-58
2022/10/16 03:10:00;;;;;;;7.32;3.80;;;14.80;99.90;;;;;;5019598;28;20105;-58
2022/10/16 03:12:29;;;;;;;7.63;3.45;;;14.80;99.90;;;;;;5016807;28;20022;-58
2022/10/16 03:14:56;;;;;;;9.38;3.78;;;14.70;99.90;;;;;;5016858;28;20053;-59
2022/10/16 03:17:22;;;;;;;5.68;3.28;;;14.80;99.90;;;;;;5020814;28;20529;-59
2022/10/16 03:19:48;;;;;;;5.47;2.72;;;14.80;99.90;;;;;;5023563;28;20053;-59
2022/10/16 03:22:14;;;;;;;4.25;2.90;;;14.80;99.90;;;;;;5020131;28;20061;-60
2022/10/16 03:24:39;;;;;;;7.10;2.47;;;14.70;99.90;;;;;;5020143;28;20105;-58
2022/10/16 03:27:05;;;;;;;8.95;3.80;;;14.70;99.90;;;;;;5019361;28;20061;-58
2022/10/16 03:29:32;;;;;;;7.28;2.40;;;14.80;99.90;;;;;;5018247;28;20028;-58
2022/10/16 03:31:58;;;;;;;8.20;2.92;;;14.80;99.90;;;;;;5016657;28;20045;-59
2022/10/16 03:34:24;;;;;;;8.93;2.78;;;14.80;99.90;;;;;;5021951;28;20049;-59
2022/10/16 03:36:50;;;;;;;4.88;2.42;;;14.70;99.90;;;;;;5021600;28;20437;-59
2022/10/16 03:39:16;;;;;;;3.83;2.65;;;14.70;99.90;;;;;;5016922;28;20032;-59
2022/10/16 03:41:41;;;;;;;4.28;2.53;;;14.70;99.90;;;;;;5021345;28;20116;-59
2022/10/16 03:44:07;;;;;;;4.15;2.47;;;14.70;99.90;;;;;;5018290;28;20109;-59
2022/10/16 03:46:32;;;;;;;5.18;3.33;;;14.70;99.90;;;;;;5018440;28;20030;-58
2022/10/16 03:48:58;;;;;;;5.75;2.88;;;14.70;99.90;;;;;;5019836;28;20402;-59
2022/10/16 03:51:23;;;;;;;11.45;3.20;;;14.70;99.90;;;;;;5019882;28;20044;-60
2022/10/16 03:53:49;;;;;;;4.53;3.10;;;14.70;99.90;;;;;;5018307;28;20076;-59
2022/10/16 03:56:15;;;;;;;11.50;3.47;;;14.70;99.90;;;;;;5016439;28;20030;-59
2022/10/16 03:58:41;;;;;;;5.32;3.85;;;14.70;99.90;;;;;;5016201;28;20049;-59
2022/10/16 04:01:07;;;;;;;14.88;3.63;;;14.60;99.90;;;;;;5019305;28;20034;-59
2022/10/16 04:03:32;;;;;;;8.65;3.70;;;14.60;99.90;;;;;;5017176;28;20026;-59
2022/10/16 04:05:58;;;;;;;9.50;3.80;;;14.60;99.90;;;;;;5020746;28;20076;-60
2022/10/16 04:08:24;;;;;;;10.45;3.97;;;14.60;99.90;;;;;;5019564;28;20034;-59
2022/10/16 04:10:50;;;;;;;7.45;3.97;;;14.60;99.90;;;;;;5018362;28;20025;-60
2022/10/16 04:13:15;;;;;;;15.52;4.25;;;14.60;99.90;;;;;;5012557;28;20029;-58
2022/10/16 04:15:41;;;;;;;5.63;3.50;;;14.60;99.90;;;;;;5021386;28;20073;-58
2022/10/16 04:18:07;;;;;;;4.50;3.67;;;14.60;99.90;;;;;;5020738;28;20513;-60
2022/10/16 04:20:33;;;;;;;9.57;3.65;;;14.60;99.90;;;;;;5018924;28;20463;-59
2022/10/16 04:22:59;;;;;;;7.45;3.40;;;14.60;99.90;;;;;;5016776;28;20090;-59
2022/10/16 04:25:24;;;;;;;7.38;3.28;;;14.60;99.90;;;;;;5018808;28;20412;-59
2022/10/16 04:27:52;;;;;;;8.13;3.70;;;14.70;99.90;;;;;;5019015;28;20563;-59
2022/10/16 04:30:17;;;;;;;7.55;2.67;;;14.70;99.90;;;;;;5018913;28;20048;-60
2022/10/16 04:32:43;;;;;;;6.50;2.80;;;14.70;99.90;;;;;;5017537;28;20474;-59
2022/10/16 04:35:09;;;;;;;11.77;3.25;;;14.70;99.90;;;;;;5019223;28;20022;-59
2022/10/16 04:37:35;;;;;;;9.23;3.20;;;14.70;99.90;;;;;;5019269;28;20121;-60
2022/10/16 04:40:00;;;;;;;11.23;3.22;;;14.70;99.90;;;;;;5020224;28;20525;-58
2022/10/16 04:42:26;;;;;;;8.02;3.30;;;14.70;99.90;;;;;;5018813;28;20033;-59
2022/10/16 04:44:51;;;;;;;4.22;2.60;;;14.70;99.90;;;;;;5020848;28;20486;-60
2022/10/16 04:47:17;;;;;;;5.05;2.60;;;14.70;99.90;;;;;;5011604;28;20095;-59
2022/10/16 04:49:43;;;;;;;2.83;2.55;;;14.70;99.90;;;;;;5019345;28;20029;-60
2022/10/16 04:52:09;;;;;;;4.90;2.63;;;14.70;99.90;;;;;;5014828;28;20045;-59
2022/10/16 04:54:35;;;;;;;5.28;3.08;;;14.70;99.90;;;;;;5015515;28;20436;-59
2022/10/16 04:57:00;;;;;;;6.93;3.42;;;14.70;99.90;;;;;;5018387;28;20112;-60
2022/10/16 04:59:26;;;;;;;4.00;3.30;;;14.70;99.90;;;;;;5020851;28;20018;-59
2022/10/16 05:01:51;;;;;;;5.68;3.35;;;14.70;99.90;;;;;;5012783;28;20477;-61
2022/10/16 05:04:17;;;;;;;6.43;3.50;;;14.60;99.90;;;;;;5017046;28;20033;-58
2022/10/16 05:06:43;;;;;;;12.75;3.58;;;14.60;99.90;;;;;;5018942;28;20029;-59
2022/10/16 05:09:09;;;;;;;6.15;3.28;;;14.60;99.90;;;;;;5015869;28;20920;-58
2022/10/16 05:11:35;;;;;;;5.43;3.97;;;14.60;99.90;;;;;;5016802;28;20406;-59
2022/10/16 05:14:01;;;;;;;7.07;3.50;;;14.60;99.90;;;;;;5020978;28;20025;-59
2022/10/16 05:16:27;;;;;;;7.53;3.90;;;14.60;99.90;;;;;;5014604;28;20026;-58
2022/10/16 05:18:53;;;;;;;7.43;3.83;;;14.60;99.90;;;;;;5017807;28;20544;-59
2022/10/16 05:21:20;;;;;;;8.05;4.50;;;14.60;99.90;;;;;;5012846;28;20034;-58
2022/10/16 05:23:45;;;;;;;13.50;4.10;;;14.60;99.90;;;;;;5019344;28;20038;-59
2022/10/16 05:26:11;;;;;;;6.70;4.35;;;14.60;99.90;;;;;;5018645;28;20460;-59
2022/10/16 05:28:37;;;;;;;7.70;4.38;;;14.60;99.90;;;;;;5021909;28;20026;-59
2022/10/16 05:31:06;;;;;;;4.22;3.40;;;14.60;99.90;;;;;;5023089;28;20157;-58
2022/10/16 05:33:33;;;;;;;4.40;3.80;;;14.60;99.90;;;;;;5020419;28;20022;-59
2022/10/16 05:36:07;;;;;;;8.23;4.13;;;14.60;99.90;;;;;;5022262;28;20059;-58
2022/10/16 05:38:36;;;;;;;8.35;4.20;;;14.60;99.90;;;;;;5019939;28;20477;-59
2022/10/16 05:41:03;;;;;;;4.03;3.20;;;14.60;99.90;;;;;;5021192;28;20033;-59
2022/10/16 05:43:29;;;;;;;3.67;3.20;;;14.60;99.90;;;;;;5022511;28;20493;-59
2022/10/16 05:45:56;;;;;;;8.32;3.72;;;14.60;99.90;;;;;;5020903;28;20514;-58
2022/10/16 05:48:23;;;;;;;8.10;4.43;;;14.70;99.90;;;;;;5020528;28;20038;-60
2022/10/16 05:50:48;;;;;;;8.05;3.97;;;14.70;99.90;;;;;;5017771;28;20038;-60
2022/10/16 05:53:14;;;;;;;6.55;3.72;;;14.70;99.90;;;;;;5017718;28;20414;-59
2022/10/16 05:55:39;;;;;;;13.98;4.53;;;14.70;99.90;;;;;;5019774;28;20899;-59
2022/10/16 05:58:05;;;;;;;16.15;4.82;;;14.70;99.90;;;;;;5016036;28;20026;-58
2022/10/16 06:00:31;;;;;;;9.10;4.00;;;14.70;99.90;;;;;;5021285;28;20073;-61
2022/10/16 06:02:56;;;;;;;6.32;4.10;;;14.70;99.90;;;;;;5024754;28;20025;-59
2022/10/16 06:05:22;;;;;;;4.03;3.50;;;14.70;99.90;;;;;;5019318;28;20038;-59
2022/10/16 06:07:47;;;;;;;4.35;2.95;;;14.70;99.90;;;;;;5018727;28;20046;-59
2022/10/16 06:10:13;;;;;;;6.13;2.88;;;14.70;99.90;;;;;;5024212;28;20036;-58
2022/10/16 06:12:38;;;;;;;7.57;3.80;;;14.80;99.90;;;;;;5020717;28;20536;-56
2022/10/16 06:15:04;;;;;;;5.00;3.30;;;14.80;99.90;;;;;;5019626;28;20083;-58
2022/10/16 06:17:30;;;;;;;12.73;4.15;;;14.80;99.90;;;;;;5018945;28;20462;-59
2022/10/16 06:19:56;;;;;;;6.38;3.97;;;14.80;99.90;;;;;;5017782;28;20021;-60
2022/10/16 06:22:21;;;;;;;14.65;4.15;;;14.80;99.90;;;;;;5018747;28;20544;-58
2022/10/16 06:24:47;;;;;;;11.45;4.82;;;14.80;99.90;;;;;;5020147;28;20069;-59
2022/10/16 06:27:13;;;;;;;11.40;4.65;;;14.80;99.90;;;;;;5017725;28;20121;-59
2022/10/16 06:29:38;;;;;;;7.93;4.30;;;14.80;99.90;;;;;;5020190;28;20034;-58
2022/10/16 06:32:04;;;;;;;6.28;4.15;;;14.80;99.90;;;;;;5022889;28;20026;-59
2022/10/16 06:34:30;;;;;;;6.47;3.67;;;14.80;99.90;;;;;;5017423;28;20026;-59
2022/10/16 06:36:55;;;;;;;5.50;4.28;;;14.90;99.90;;;;;;5018995;28;20690;-59
2022/10/16 06:39:21;;;;;;;8.60;4.55;;;14.90;99.90;;;;;;5020749;28;20137;-59
2022/10/16 06:41:46;;;;;;;6.93;4.82;;;14.90;99.90;;;;;;5021412;28;20117;-58
2022/10/16 06:44:12;;;;;;;6.00;3.65;;;14.90;99.90;;;;;;5021392;28;20033;-59
2022/10/16 06:46:38;;;;;;;12.10;4.32;;;15.00;99.90;;;;;;5022992;28;20021;-60
2022/10/16 06:49:03;;;;;;;17.05;4.07;;;15.00;99.90;;;;;;5018011;28;20040;-59
2022/10/16 06:51:31;;;;;;;8.07;3.80;;;15.00;99.90;;;;;;5019355;28;20165;-59
2022/10/16 06:53:56;;;;;;;8.57;4.60;;;15.00;99.90;;;;;;5018737;28;20026;-60
2022/10/16 06:56:23;;;;;;;8.07;4.25;;;15.00;99.90;;;;;;5018991;28;20066;-59
2022/10/16 06:58:50;;;;;;;7.15;4.68;;;15.00;99.90;;;;;;5022943;28;20032;-58
2022/10/16 07:01:17;;;;;;;6.65;4.90;;;15.00;99.90;;;;;;5019973;28;20104;-58
2022/10/16 07:03:44;;;;;;;6.30;4.75;;;15.00;99.90;;;;;;5019310;28;20030;-58
2022/10/16 07:06:11;;;;;;;5.38;4.65;;;15.00;99.90;;;;;;5019325;28;20033;-60
2022/10/16 07:08:39;;;;;;;8.18;4.53;;;15.00;99.90;;;;;;5020429;28;20116;-59
2022/10/16 07:11:07;;;;;;;8.77;5.22;;;15.00;99.90;;;;;;5019560;28;20064;-59
2022/10/16 07:13:34;;;;;;;7.38;4.05;;;15.00;99.90;;;;;;5020710;28;20025;-60
2022/10/16 07:16:13;;;;;;;7.70;4.00;;;15.10;99.90;;;;;;5018748;28;20512;-59
2022/10/16 07:18:40;;;;;;;12.18;4.10;;;15.10;99.90;;;;;;5015759;28;20731;-58
2022/10/16 07:21:07;;;;;;;6.28;3.80;;;15.10;99.90;;;;;;5021837;28;20095;-59
2022/10/16 07:23:33;;;;;;;5.25;3.90;;;15.20;99.90;;;;;;5021161;28;20037;-59
2022/10/16 07:25:58;;;;;;;9.40;3.92;;;15.20;99.90;;;;;;5019336;28;20018;-60
2022/10/16 07:28:24;;;;;;;4.82;3.65;;;15.20;99.90;;;;;;5020695;28;20018;-59
2022/10/16 07:30:50;;;;;;;7.78;3.50;;;15.30;99.90;;;;;;5019545;28;20030;-59
2022/10/16 07:33:16;;;;;;;6.75;3.30;;;15.30;99.90;;;;;;5016173;28;20038;-59
2022/10/16 07:35:53;;;;;;;6.65;3.42;;;15.40;99.90;;;;;;5016578;28;20034;-61
2022/10/16 07:38:20;;;;;;;3.75;3.03;;;15.40;99.90;;;;;;5017505;28;20032;-60
2022/10/16 07:40:46;;;;;;;8.27;2.75;;;15.50;99.90;;;;;;5018176;28;20030;-59
2022/10/16 07:43:12;;;;;;;3.22;2.20;;;15.50;99.90;;;;;;5016047;28;20029;-59
2022/10/16 07:45:49;;;;;;;4.07;2.30;;;15.60;99.90;;;;;;5024701;28;20134;-59
2022/10/16 07:48:16;;;;;;;5.13;2.28;;;15.70;99.90;;;;;;5015966;28;20034;-59
2022/10/16 07:50:42;;;;;;;6.22;2.35;;;15.70;99.90;;;;;;5020803;28;20043;-60
2022/10/16 07:53:08;;;;;;;9.85;2.47;;;15.70;99.90;;;;;;5017645;28;20034;-59
2022/10/16 07:55:34;;;;;;;6.03;2.55;;;15.80;99.90;;;;;;5002291;28;20497;-59
2022/10/16 07:58:00;;;;;;;7.65;2.60;;;15.80;99.90;;;;;;5021591;28;20017;-60
2022/10/16 08:00:25;;;;;;;2.47;2.20;;;15.90;99.90;;;;;;5016632;28;20082;-59
2022/10/16 08:02:51;;;;;;;4.28;2.38;;;15.90;99.90;;;;;;5020275;28;20034;-60
2022/10/16 08:05:16;;;;;;;6.22;2.65;;;16.00;99.90;;;;;;5018463;28;20060;-59
2022/10/16 08:07:42;;;;;;;2.95;1.80;;;16.00;99.90;;;;;;5016666;28;20028;-59
2022/10/16 08:10:17;;;;;;;7.00;3.08;;;16.00;99.90;;;;;;5021990;28;20030;-60
2022/10/16 08:12:42;;;;;;;11.82;2.67;;;16.00;99.90;;;;;;5016170;28;20032;-60
2022/10/16 08:15:09;;;;;;;3.88;2.33;;;16.00;99.90;;;;;;5020449;28;20025;-60
2022/10/16 08:17:34;;;;;;;3.83;2.80;;;15.90;99.90;;;;;;5022028;28;20406;-60
2022/10/16 08:20:01;;;;;;;5.35;2.78;;;15.90;99.90;;;;;;5018238;28;20037;-59
2022/10/16 08:22:27;;;;;;;3.28;2.22;;;16.00;99.90;;;;;;5019366;28;20025;-59
2022/10/16 08:24:52;;;;;;;3.25;2.60;;;16.10;99.90;;;;;;5019529;28;20051;-59
2022/10/16 08:27:18;;;;;;;3.63;1.80;;;16.20;99.90;;;;;;5021952;28;20029;-59
2022/10/16 08:29:44;;;;;;;2.05;1.85;;;16.20;99.90;;;;;;5019388;28;20030;-60
2022/10/16 08:32:09;;;;;;;2.10;1.90;;;16.30;99.90;;;;;;5013204;28;20025;-60
2022/10/16 08:34:35;;;;;;;3.47;1.95;;;16.40;99.90;;;;;;5026544;28;20021;-60
2022/10/16 08:37:00;;;;;;;5.85;1.75;;;16.40;99.90;;;;;;5014998;28;20018;-59
2022/10/16 08:39:26;;;;;;;6.22;2.05;;;16.50;99.90;;;;;;5020470;28;20026;-58
2022/10/16 08:41:55;;;;;;;5.13;2.03;;;16.50;99.90;;;;;;5022478;28;20049;-60
2022/10/16 08:44:28;;;;;;;2.22;1.90;;;16.60;99.90;;;;;;5015002;28;20031;-60
2022/10/16 08:46:54;;;;;;;10.57;1.75;;;16.80;99.90;;;;;;5016743;28;20038;-59
2022/10/16 08:49:20;;;;;;;4.80;1.58;;;16.90;99.90;;;;;;5017607;28;20036;-60
2022/10/16 08:51:48;;;;;;;2.03;1.45;;;17.10;99.90;;;;;;5016140;28;20076;-60
2022/10/16 08:54:27;;;;;;;3.80;1.50;;;17.20;99.90;;;;;;5018436;28;20179;-59
2022/10/16 08:57:18;;;;;;;6.95;1.45;;;17.20;99.90;;;;;;5015492;28;20510;-60
2022/10/16 08:59:44;;;;;;;3.00;1.35;;;17.20;99.90;;;;;;5013315;28;20380;-59
2022/10/16 09:02:28;;;;;;;2.55;1.52;;;17.20;99.90;;;;;;5019198;28;20044;-59
2022/10/16 09:05:24;;;;;;;1.25;0.95;;;17.30;99.90;;;;;;5016781;28;20034;-60
2022/10/16 09:07:58;;;;;;;4.15;1.27;;;17.30;99.90;;;;;;5016196;28;20038;-60
2022/10/16 09:10:56;;;;;;;3.40;0.93;;;17.40;99.90;;;;;;5020731;28;20160;-60
2022/10/16 09:13:35;;;;;;;7.07;1.10;;;17.50;99.90;;;;;;5019995;28;20034;-60
2022/10/16 09:16:22;;;;;;;1.00;0.90;;;17.50;99.90;;;;;;5020377;28;20041;-58
2022/10/16 09:18:53;;;;;;;7.63;1.42;;;17.50;99.90;;;;;;5014063;28;20045;-60
2022/10/16 09:21:29;;;;;;;3.28;1.10;;;17.50;99.90;;;;;;5017192;28;20032;-60
2022/10/16 09:23:59;;;;;;;3.30;1.17;;;17.50;99.90;;;;;;5017072;28;20041;-60
2022/10/16 09:26:25;;;;;;;4.97;1.48;;;17.50;99.90;;;;;;5015111;28;20587;-59
2022/10/16 09:28:53;;;;;;;3.30;1.60;;;17.60;99.90;;;;;;5015075;28;20065;-59
2022/10/16 09:31:20;;;;;;;2.97;1.00;;;17.70;99.90;;;;;;5018446;28;20046;-59
2022/10/16 09:33:53;;;;;;;1.40;1.30;;;17.70;99.90;;;;;;5015632;28;20112;-59
2022/10/16 09:36:20;;;;;;;1.90;1.20;;;17.80;99.90;;;;;;5016729;28;20045;-60
2022/10/16 09:38:45;;;;;;;1.88;1.05;;;17.90;99.90;;;;;;5016070;28;20041;-60
2022/10/16 09:41:29;;;;;;;6.03;1.20;;;17.80;99.90;;;;;;5015214;28;20499;-59
2022/10/16 09:43:58;;;;;;;3.22;1.00;;;17.80;99.90;;;;;;5019179;28;20040;-59
2022/10/16 09:46:29;;;;;;;1.80;0.90;;;17.70;99.90;;;;;;5018077;28;20029;-59
2022/10/16 09:48:58;;;;;;;3.70;1.10;;;17.60;99.90;;;;;;5015175;28;20065;-59
2022/10/16 09:51:28;;;;;;;3.90;1.10;;;17.50;99.90;;;;;;5018847;28;20156;-59
2022/10/16 09:54:16;;;;;;;2.20;1.15;;;17.50;99.90;;;;;;5017192;28;20522;-59
2022/10/16 09:56:42;;;;;;;1.20;0.93;;;17.40;99.90;;;;;;5014369;28;20044;-59
2022/10/16 09:59:13;;;;;;;1.48;1.10;;;17.40;99.90;;;;;;5015594;28;20648;-59
2022/10/16 10:01:40;;;;;;;3.67;1.27;;;17.40;99.90;;;;;;5014776;28;20108;-59
2022/10/16 10:04:07;;;;;;;1.67;1.10;;;17.40;99.90;;;;;;5018574;28;20029;-59
2022/10/16 10:06:38;;;;;;;2.17;1.10;;;17.40;99.90;;;;;;5019694;28;20494;-59
2022/10/16 10:09:15;;;;;;;3.35;1.10;;;17.40;99.90;;;;;;5018557;28;20033;-60
2022/10/16 10:11:58;;;;;;;2.05;1.15;;;17.50;99.90;;;;;;5020735;28;20056;-59
2022/10/16 10:14:39;;;;;;;1.20;1.10;;;17.50;99.90;;;;;;5022577;28;20104;-61
2022/10/16 10:17:05;;;;;;;1.90;1.35;;;17.60;99.90;;;;;;5026043;28;20052;-59
2022/10/16 10:19:38;;;;;;;1.80;1.10;;;17.70;99.90;;;;;;5020172;28;20474;-59
2022/10/16 10:22:17;;;;;;;1.35;1.25;;;17.80;99.90;;;;;;5021635;28;20117;-59
2022/10/16 10:24:45;;;;;;;4.00;1.50;;;17.90;99.90;;;;;;5019992;28;20050;-59
2022/10/16 10:27:16;;;;;;;2.17;1.02;;;18.10;99.90;;;;;;5018978;28;20026;-60
2022/10/16 10:30:06;;;;;;;3.45;1.42;;;18.30;99.90;;;;;;5020349;28;20033;-59
2022/10/16 10:32:48;;;;;;;1.33;1.10;;;18.40;99.90;;;;;;5026086;28;20520;-60
2022/10/16 10:35:21;;;;;;;2.83;1.40;;;18.50;99.90;;;;;;5023910;28;20068;-59
2022/10/16 10:37:57;;;;;;;7.05;1.25;;;18.50;99.90;;;;;;5019122;28;20092;-59
2022/10/16 10:40:50;;;;;;;2.00;1.10;;;18.50;99.90;;;;;;5019805;28;20531;-59
2022/10/16 10:43:46;;;;;;;1.45;1.27;;;18.50;99.90;;;;;;5023447;28;20037;-59
2022/10/16 10:46:29;;;;;;;1.42;1.10;;;18.50;99.90;;;;;;5019628;28;20042;-59
2022/10/16 10:49:10;;;;;;;2.30;1.30;;;18.60;99.90;;;;;;5018054;28;20038;-58
2022/10/16 10:52:06;;;;;;;4.05;1.40;;;18.60;99.90;;;;;;5020130;28;20065;-59
2022/10/16 10:54:40;;;;;;;1.48;1.20;;;18.70;99.90;;;;;;5019120;28;20073;-60
2022/10/16 10:57:25;;;;;;;2.00;1.20;;;18.80;99.90;;;;;;5019222;28;20390;-60
2022/10/16 11:00:17;;;;;;;1.63;1.20;;;18.80;99.90;;;;;;5023435;28;20030;-59
2022/10/16 11:03:05;;;;;;;4.93;1.52;;;18.80;99.90;;;;;;5016201;28;20242;-60
2022/10/16 11:05:44;;;;;;;5.80;1.42;;;18.80;99.90;;;;;;5020057;28;20038;-59
2022/10/16 11:08:27;;;;;;;3.90;1.35;;;18.70;99.90;;;;;;5020118;28;20529;-60
2022/10/16 11:10:57;;;;;;;3.45;1.30;;;18.80;99.90;;;;;;5017894;28;20038;-59
2022/10/16 11:13:47;;;;;;;3.70;1.20;;;18.90;99.90;;;;;;5020622;28;20030;-60
2022/10/16 11:16:29;;;;;;;3.72;0.98;;;19.10;99.90;;;;;;5018802;28;20502;-59
2022/10/16 11:19:02;;;;;;;1.88;1.30;;;19.20;99.90;;;;;;5018575;28;20029;-59
2022/10/16 11:21:32;;;;;;;3.25;1.15;;;19.20;99.90;;;;;;5015555;28;20045;-59
2022/10/16 11:24:24;;;;;;;2.80;1.08;;;19.20;99.90;;;;;;5020944;28;20037;-60
2022/10/16 11:26:53;;;;;;;1.92;1.27;;;19.10;99.90;;;;;;5009884;28;20021;-61
2022/10/16 11:29:30;;;;;;;6.63;1.35;;;19.10;99.90;;;;;;5018008;28;20018;-60
2022/10/16 11:32:15;;;;;;;3.97;1.20;;;19.10;99.90;;;;;;5018199;28;20399;-59
2022/10/16 11:34:47;;;;;;;3.22;1.42;;;19.10;99.90;;;;;;5018957;28;20053;-59
2022/10/16 11:37:24;;;;;;;1.88;1.20;;;19.10;99.90;;;;;;5020361;28;20030;-59
2022/10/16 11:39:52;;;;;;;2.92;1.27;;;19.00;99.90;;;;;;5015740;28;20103;-60
2022/10/16 11:42:41;;;;;;;2.20;1.20;;;19.10;99.90;;;;;;5020259;28;20529;-59
2022/10/16 11:45:07;;;;;;;4.93;1.30;;;19.10;99.90;;;;;;5018255;28;20505;-60
2022/10/16 11:47:37;;;;;;;1.27;1.15;;;19.00;99.90;;;;;;5017148;28;20025;-60
2022/10/16 11:50:28;;;;;;;1.30;1.20;;;18.90;99.90;;;;;;5019177;28;20128;-59
2022/10/16 11:53:19;;;;;;;1.73;1.33;;;18.90;99.90;;;;;;5013510;28;20034;-60
2022/10/16 11:55:46;;;;;;;1.60;1.27;;;18.90;99.90;;;;;;5018940;28;20408;-62
2022/10/16 11:58:26;;;;;;;2.42;0.90;;;18.90;99.90;;;;;;5019753;28;20780;-58
2022/10/16 12:01:30;;;;;;;4.15;1.38;;;19.00;99.90;;;;;;5018672;28;20038;-59
2022/10/16 12:04:01;;;;;;;2.30;1.40;;;19.00;99.90;;;;;;5022479;28;20441;-60
2022/10/16 12:06:30;;;;;;;7.07;1.45;;;18.90;99.90;;;;;;5020198;28;20017;-59
2022/10/16 12:09:01;;;;;;;6.72;1.90;;;18.80;99.90;;;;;;5020648;28;20543;-60
2022/10/16 12:11:38;;;;;;;7.95;1.50;;;18.60;99.90;;;;;;5016765;28;20576;-60
2022/10/16 12:14:11;;;;;;;8.13;1.48;;;18.40;99.90;;;;;;5017716;28;20032;-59
2022/10/16 12:16:52;;;;;;;3.80;1.50;;;18.10;99.90;;;;;;5017479;28;20028;-60
2022/10/16 12:19:20;;;;;;;1.85;1.58;;;17.90;99.90;;;;;;5016731;28;20060;-61
2022/10/16 12:21:46;;;;;;;2.35;1.85;;;17.80;99.90;;;;;;5021269;28;20034;-60
2022/10/16 12:24:31;;;;;;;7.18;2.20;;;17.70;99.90;;;;;;5013229;28;20569;-61
2022/10/16 12:26:56;;;;;;;2.13;1.60;;;17.70;99.90;;;;;;5014789;28;20060;-60
2022/10/16 12:29:39;;;;;;;3.80;2.03;;;17.70;99.90;;;;;;5016638;28;20494;-60
2022/10/16 12:32:23;;;;;;;13.07;2.70;;;17.70;99.90;;;;;;5017014;28;20088;-60
2022/10/16 12:34:49;;;;;;;2.67;2.47;;;17.80;99.90;;;;;;5014049;28;20485;-61
2022/10/16 12:37:31;;;;;;;3.83;2.80;;;17.90;99.90;;;;;;5021649;28;20441;-60
2022/10/16 12:39:58;;;;;;;6.25;2.63;;;18.00;99.90;;;;;;5017422;28;20033;-60
2022/10/16 12:42:33;;;;;;;3.50;1.95;;;18.30;99.90;;;;;;5016247;28;20042;-60
2022/10/16 12:44:59;;;;;;;5.28;2.78;;;18.50;99.90;;;;;;5017893;28;20120;-60
2022/10/16 12:47:30;;;;;;;8.30;2.70;;;18.70;99.90;;;;;;5023488;28;20034;-60
2022/10/16 12:49:57;;;;;;;3.15;2.22;;;19.00;99.90;;;;;;5021072;28;20064;-61
2022/10/16 12:52:36;;;;;;;4.60;1.88;;;19.00;99.90;;;;;;5023449;28;20030;-60
2022/10/16 12:55:04;;;;;;;3.83;1.80;;;19.00;99.90;;;;;;5019024;28;20542;-61
2022/10/16 12:57:41;;;;;;;3.40;2.00;;;18.90;99.90;;;;;;5019420;28;20148;-60
2022/10/16 13:00:21;;;;;;;4.30;1.30;;;18.80;99.90;;;;;;5018253;28;20088;-61